Time;durP1;ratioP1;P1;durP2;ratioP2;P2;SDS_P1;SDS_P2;PMS_P1;PMS_P2;Temp;Humidity;BMP_temperature;BMP_pressure;BME280_temperature;BME280_humidity;BME280_pressure;Samples;Min_cycle;Max_cycle;Signal;HPM_P1;HPM_P2
2021/04/24 00:01:24;;;;;;;12.50;4.70;;;;;;;8.46;40.55;97276.41;4993178;28;20146;-61
2021/04/24 00:03:50;;;;;;;9.45;4.70;;;;;;;8.45;40.59;97272.09;4998063;28;20045;-60
2021/04/24 00:06:15;;;;;;;11.38;5.07;;;;;;;8.37;41.18;97264.75;4992662;28;20069;-63
2021/04/24 00:08:41;;;;;;;11.90;4.72;;;;;;;8.39;40.54;97268.78;4998782;28;20111;-63
2021/04/24 00:11:06;;;;;;;10.07;5.40;;;;;;;8.40;40.83;97267.63;5011483;28;20100;-62
2021/04/24 00:13:31;;;;;;;13.30;5.13;;;;;;;8.34;40.82;97265.47;5003481;28;20444;-63
2021/04/24 00:15:57;;;;;;;10.02;4.70;;;;;;;8.19;41.33;97275.88;5001958;28;20048;-62
2021/04/24 00:18:22;;;;;;;12.57;4.97;;;;;;;8.17;41.65;97278.13;4996479;28;20038;-63
2021/04/24 00:20:48;;;;;;;12.43;5.05;;;;;;;8.23;40.76;97273.28;5000752;28;20034;-62
2021/04/24 00:23:14;;;;;;;14.60;5.25;;;;;;;8.08;41.99;97271.97;4996162;28;20085;-63
2021/04/24 00:25:40;;;;;;;12.82;4.28;;;;;;;7.95;41.61;97281.25;5000428;28;20500;-63
2021/04/24 00:28:08;;;;;;;11.23;4.85;;;;;;;7.84;43.14;97267.22;4998976;28;20052;-63
2021/04/24 00:30:33;;;;;;;8.00;4.15;;;;;;;7.82;43.96;97266.78;5005287;28;20038;-63
2021/04/24 00:32:59;;;;;;;11.63;5.07;;;;;;;7.83;42.80;97268.34;5004484;28;20108;-63
2021/04/24 00:35:24;;;;;;;13.82;5.32;;;;;;;7.79;43.15;97265.50;5000218;28;20452;-61
2021/04/24 00:37:52;;;;;;;10.13;4.35;;;;;;;7.77;43.07;97269.69;5004178;28;20042;-61
2021/04/24 00:40:19;;;;;;;9.90;4.68;;;;;;;7.69;44.07;97267.84;4989477;28;20096;-62
2021/04/24 00:42:45;;;;;;;17.35;4.90;;;;;;;7.71;44.41;97265.59;4996705;28;20101;-62
2021/04/24 00:45:12;;;;;;;10.77;5.53;;;;;;;7.55;46.06;97257.22;4999474;28;20034;-62
2021/04/24 00:47:38;;;;;;;10.88;3.95;;;;;;;7.35;45.80;97251.44;5018806;28;20044;-61
2021/04/24 00:50:09;;;;;;;10.13;4.00;;;;;;;7.20;48.75;97252.81;5017018;28;20042;-61
2021/04/24 00:52:35;;;;;;;8.00;4.28;;;;;;;7.05;49.45;97242.50;5005279;28;20085;-61
2021/04/24 00:55:01;;;;;;;9.50;4.50;;;;;;;6.86;49.00;97251.06;4995119;28;20185;-62
2021/04/24 00:57:28;;;;;;;9.57;4.53;;;;;;;6.73;50.54;97246.69;4984806;28;20050;-63
2021/04/24 00:59:54;;;;;;;11.77;3.95;;;;;;;6.24;50.33;97247.03;5005288;28;20046;-62
2021/04/24 01:02:20;;;;;;;9.05;3.97;;;;;;;5.98;51.37;97245.19;4991648;28;20184;-62
2021/04/24 01:04:46;;;;;;;12.32;4.45;;;;;;;5.70;51.61;97242.78;4994702;28;20487;-60
2021/04/24 01:07:11;;;;;;;8.05;3.38;;;;;;;5.65;52.23;97236.72;4998942;28;20038;-61
2021/04/24 01:09:36;;;;;;;12.40;3.85;;;;;;;5.64;52.56;97240.56;4991901;28;20135;-61
2021/04/24 01:12:02;;;;;;;11.90;3.95;;;;;;;5.55;52.36;97235.13;4997825;28;20053;-61
2021/04/24 01:14:28;;;;;;;9.32;4.05;;;;;;;5.51;53.63;97232.25;4988584;28;20038;-59
2021/04/24 01:16:55;;;;;;;8.02;3.67;;;;;;;5.47;52.70;97233.19;4985146;28;20440;-61
2021/04/24 01:19:23;;;;;;;11.43;4.22;;;;;;;5.41;52.60;97226.34;4979323;28;20400;-60
2021/04/24 01:21:56;;;;;;;9.60;3.65;;;;;;;5.29;52.44;97230.47;5000709;28;20052;-62
2021/04/24 01:24:21;;;;;;;8.45;4.00;;;;;;;5.14;52.50;97236.38;4995116;28;20049;-63
2021/04/24 01:26:48;;;;;;;12.18;4.32;;;;;;;5.10;52.55;97240.88;5003868;28;20528;-61
2021/04/24 01:29:13;;;;;;;11.57;3.72;;;;;;;5.08;54.55;97229.53;4997638;28;20382;-61
2021/04/24 01:31:39;;;;;;;10.05;4.05;;;;;;;4.98;54.74;97231.41;5003344;28;20052;-63
2021/04/24 01:34:07;;;;;;;9.65;4.50;;;;;;;5.04;55.38;97231.25;4995707;28;20049;-61
2021/04/24 01:36:32;;;;;;;9.52;3.83;;;;;;;5.05;55.62;97230.16;5019677;28;20512;-61
2021/04/24 01:38:58;;;;;;;10.55;4.22;;;;;;;4.96;56.37;97228.22;5023579;28;20041;-62
2021/04/24 01:41:23;;;;;;;8.32;4.20;;;;;;;5.00;56.40;97224.88;5017623;28;20481;-63
2021/04/24 01:43:54;;;;;;;8.52;4.05;;;;;;;5.15;56.34;97224.44;5023204;28;20049;-61
2021/04/24 01:46:20;;;;;;;11.18;4.22;;;;;;;5.20;55.83;97218.03;5002697;28;20079;-61
2021/04/24 01:48:46;;;;;;;7.78;3.85;;;;;;;5.21;56.38;97225.84;5003543;28;20563;-62
2021/04/24 01:51:12;;;;;;;10.77;4.35;;;;;;;5.21;56.65;97217.72;4996530;28;20643;-62
2021/04/24 01:53:39;;;;;;;17.00;4.13;;;;;;;5.09;57.04;97222.97;5000003;28;20084;-61
2021/04/24 01:56:05;;;;;;;16.02;4.65;;;;;;;4.94;56.22;97226.94;4992278;28;20046;-60
2021/04/24 01:58:31;;;;;;;9.65;4.78;;;;;;;4.84;56.27;97219.88;5000350;28;20149;-60
2021/04/24 02:01:00;;;;;;;14.90;4.15;;;;;;;4.72;56.73;97219.72;5012012;28;20571;-62
2021/04/24 02:03:26;;;;;;;11.63;4.87;;;;;;;4.58;57.16;97228.75;4990574;28;20046;-62
2021/04/24 02:05:53;;;;;;;14.98;3.78;;;;;;;4.57;57.57;97219.03;4983502;28;20046;-63
2021/04/24 02:08:25;;;;;;;10.90;4.35;;;;;;;4.53;57.69;97231.63;4990237;28;20041;-63
2021/04/24 02:10:54;;;;;;;9.25;3.78;;;;;;;4.43;57.17;97236.53;4994987;28;20475;-61
2021/04/24 02:13:22;;;;;;;14.03;4.90;;;;;;;4.18;57.49;97242.31;4987947;28;20042;-62
2021/04/24 02:15:48;;;;;;;8.82;4.63;;;;;;;4.15;57.67;97242.16;5000004;28;20575;-63
2021/04/24 02:18:14;;;;;;;9.65;4.63;;;;;;;4.05;57.85;97235.06;4987212;28;20084;-61
2021/04/24 02:20:43;;;;;;;17.65;5.13;;;;;;;3.94;57.91;97244.56;4986893;28;20085;-63
2021/04/24 02:23:11;;;;;;;10.68;4.43;;;;;;;4.00;59.06;97236.00;4990062;28;20050;-60
2021/04/24 02:25:37;;;;;;;12.55;5.93;;;;;;;3.91;59.06;97239.78;4999909;28;20169;-60
2021/04/24 02:28:03;;;;;;;7.70;4.00;;;;;;;3.93;59.80;97243.78;4987396;28;20042;-61
2021/04/24 02:30:28;;;;;;;14.43;4.78;;;;;;;3.89;59.67;97240.09;4996212;28;20042;-60
2021/04/24 02:32:54;;;;;;;13.48;5.75;;;;;;;3.45;61.84;97237.06;5001553;28;20050;-63
2021/04/24 02:35:26;;;;;;;9.40;4.60;;;;;;;2.91;63.43;97240.75;4996496;28;20038;-59
2021/04/24 02:37:52;;;;;;;10.20;4.40;;;;;;;2.90;64.18;97241.84;4994962;28;20045;-62
2021/04/24 02:40:20;;;;;;;11.65;4.57;;;;;;;3.08;64.06;97235.50;4990674;28;20041;-60
2021/04/24 02:42:45;;;;;;;10.00;4.55;;;;;;;3.21;63.39;97231.94;4998056;28;20710;-62
2021/04/24 02:45:13;;;;;;;17.27;6.13;;;;;;;3.01;64.26;97233.22;4990457;28;20042;-61
2021/04/24 02:47:39;;;;;;;11.20;4.15;;;;;;;3.08;64.54;97224.69;4996052;28;20050;-63
2021/04/24 02:50:07;;;;;;;11.52;5.80;;;;;;;3.42;63.24;97226.88;4991410;28;20049;-61
2021/04/24 02:52:33;;;;;;;8.25;4.50;;;;;;;3.62;61.86;97230.22;5000950;28;20077;-62
2021/04/24 02:54:59;;;;;;;14.60;4.35;;;;;;;3.67;61.96;97226.56;4996643;28;20073;-61
2021/04/24 02:57:24;;;;;;;11.68;4.32;;;;;;;3.76;61.68;97224.69;4994577;28;20267;-61
2021/04/24 02:59:50;;;;;;;11.85;4.70;;;;;;;3.74;61.43;97230.44;4999222;28;20046;-62
2021/04/24 03:02:16;;;;;;;6.45;4.30;;;;;;;3.58;62.36;97234.63;4988215;28;20038;-62
2021/04/24 03:04:42;;;;;;;11.88;4.60;;;;;;;3.32;63.24;97229.03;4996153;28;20072;-61
2021/04/24 03:07:08;;;;;;;11.38;5.00;;;;;;;3.32;64.09;97232.53;4994510;28;20045;-62
2021/04/24 03:09:33;;;;;;;12.32;5.03;;;;;;;3.22;64.33;97228.16;5011397;28;20045;-62
2021/04/24 03:11:59;;;;;;;12.80;5.07;;;;;;;3.05;63.45;97228.78;4997809;28;20049;-63
2021/04/24 03:14:24;;;;;;;10.55;4.97;;;;;;;2.83;64.53;97223.34;4987399;28;20057;-63
2021/04/24 03:16:50;;;;;;;13.00;4.95;;;;;;;2.83;64.87;97224.13;5001872;28;20076;-64
2021/04/24 03:19:15;;;;;;;11.43;4.47;;;;;;;2.84;64.40;97233.81;4990286;28;20046;-64
2021/04/24 03:21:41;;;;;;;14.27;4.63;;;;;;;3.00;64.80;97226.19;5001075;28;20727;-66
2021/04/24 03:24:07;;;;;;;10.38;5.22;;;;;;;3.21;63.94;97225.75;5005311;28;20030;-60
2021/04/24 03:26:32;;;;;;;9.68;5.00;;;;;;;3.11;62.72;97232.16;5024070;28;20081;-63
2021/04/24 03:28:58;;;;;;;15.75;6.97;;;;;;;2.84;63.69;97228.41;5021018;28;20046;-63
2021/04/24 03:31:24;;;;;;;12.25;4.97;;;;;;;2.74;64.99;97230.53;4999020;28;20042;-63
2021/04/24 03:33:49;;;;;;;11.93;5.03;;;;;;;2.77;64.86;97235.34;5001993;28;20547;-63
2021/04/24 03:36:15;;;;;;;10.50;4.90;;;;;;;2.79;64.68;97239.38;4992178;28;20037;-63
2021/04/24 03:38:40;;;;;;;14.68;5.38;;;;;;;2.85;65.30;97242.75;4994576;28;20608;-63
2021/04/24 03:41:07;;;;;;;11.38;4.82;;;;;;;2.86;64.98;97239.75;4994805;28;20076;-61
2021/04/24 03:43:32;;;;;;;10.18;4.97;;;;;;;2.74;62.92;97241.34;5001464;28;20100;-64
2021/04/24 03:45:58;;;;;;;12.35;5.55;;;;;;;2.57;65.12;97242.78;5001525;28;20038;-62
2021/04/24 03:48:23;;;;;;;11.68;4.78;;;;;;;2.59;65.57;97240.59;4997251;28;20096;-63
2021/04/24 03:50:49;;;;;;;13.05;4.72;;;;;;;2.32;67.57;97245.97;5001320;28;20046;-63
2021/04/24 03:53:14;;;;;;;13.00;4.70;;;;;;;2.23;68.10;97249.38;4997038;28;20038;-63
2021/04/24 03:55:40;;;;;;;10.68;5.07;;;;;;;1.70;70.42;97252.47;5002449;28;20481;-61
2021/04/24 03:58:05;;;;;;;13.35;5.80;;;;;;;1.62;70.81;97247.72;5007363;28;20056;-63
2021/04/24 04:00:32;;;;;;;11.77;5.78;;;;;;;1.59;71.07;97241.03;5007683;28;20049;-63
2021/04/24 04:03:03;;;;;;;14.27;5.68;;;;;;;1.41;72.16;97247.28;4994112;28;20512;-62
2021/04/24 04:05:51;;;;;;;14.77;5.88;;;;;;;1.42;72.32;97252.34;4995453;28;20046;-61
2021/04/24 04:08:17;;;;;;;11.63;5.25;;;;;;;1.63;71.47;97246.66;4985578;28;20037;-63
2021/04/24 04:10:44;;;;;;;11.60;5.05;;;;;;;1.68;71.29;97247.34;4996045;28;20042;-61
2021/04/24 04:13:11;;;;;;;17.65;5.93;;;;;;;1.87;70.44;97252.72;5015824;28;20068;-60
2021/04/24 04:15:36;;;;;;;14.55;6.18;;;;;;;2.03;70.85;97252.44;4997899;28;20042;-63
2021/04/24 04:18:06;;;;;;;12.82;5.50;;;;;;;1.87;70.27;97251.91;4996603;28;20129;-60
2021/04/24 04:20:33;;;;;;;12.60;5.32;;;;;;;1.85;70.39;97252.19;4997896;28;20137;-61
2021/04/24 04:22:59;;;;;;;14.45;5.50;;;;;;;2.05;71.11;97259.16;4990429;28;20038;-62
2021/04/24 04:25:25;;;;;;;16.63;6.00;;;;;;;2.20;70.41;97258.09;4987160;28;20556;-59
2021/04/24 04:27:50;;;;;;;13.43;5.32;;;;;;;2.32;69.57;97268.41;4991194;28;20050;-63
2021/04/24 04:30:17;;;;;;;10.43;5.43;;;;;;;2.27;68.52;97266.59;4988614;28;20037;-58
2021/04/24 04:32:43;;;;;;;11.38;5.30;;;;;;;2.39;68.85;97274.22;5000337;28;20038;-63
2021/04/24 04:35:10;;;;;;;14.23;5.38;;;;;;;2.41;68.36;97265.81;4996041;28;20528;-64
2021/04/24 04:37:36;;;;;;;11.52;5.55;;;;;;;2.49;68.37;97275.94;4991974;28;20477;-62
2021/04/24 04:40:02;;;;;;;10.45;4.93;;;;;;;2.57;68.50;97266.31;4992959;28;20054;-64
2021/04/24 04:42:28;;;;;;;11.90;5.32;;;;;;;2.41;67.18;97273.91;4996230;28;20052;-61
2021/04/24 04:44:54;;;;;;;13.50;6.07;;;;;;;2.08;68.12;97268.56;4992568;28;20029;-60
2021/04/24 04:47:19;;;;;;;10.80;5.35;;;;;;;1.78;70.81;97273.38;4994746;28;20041;-62
2021/04/24 04:49:45;;;;;;;13.75;5.72;;;;;;;1.58;71.82;97281.81;4999778;28;20041;-61
2021/04/24 04:52:10;;;;;;;11.32;5.40;;;;;;;1.32;72.65;97274.91;4995705;28;20084;-61
2021/04/24 04:54:36;;;;;;;12.50;6.20;;;;;;;1.41;73.32;97280.44;4988006;28;20116;-62
2021/04/24 04:57:01;;;;;;;13.65;6.15;;;;;;;1.61;72.65;97292.03;5001087;28;20057;-62
2021/04/24 04:59:28;;;;;;;14.48;5.97;;;;;;;1.96;72.22;97290.66;4989694;28;20056;-61
2021/04/24 05:01:55;;;;;;;13.90;5.72;;;;;;;2.22;70.45;97292.94;4996158;28;20042;-62
2021/04/24 05:04:21;;;;;;;16.30;5.78;;;;;;;2.49;69.88;97292.97;4994237;28;20053;-63
2021/04/24 05:06:49;;;;;;;13.30;6.38;;;;;;;2.89;68.65;97294.38;4998405;28;20612;-63
2021/04/24 05:09:14;;;;;;;12.63;6.00;;;;;;;3.44;67.60;97294.28;4993123;28;20069;-62
2021/04/24 05:11:40;;;;;;;12.00;5.25;;;;;;;5.10;61.82;97297.88;4993277;28;20085;-61
2021/04/24 05:14:05;;;;;;;16.30;5.88;;;;;;;6.87;56.82;97298.97;4996300;28;20061;-64
2021/04/24 05:16:30;;;;;;;16.73;5.05;;;;;;;8.61;49.29;97291.38;5001623;28;20050;-63
2021/04/24 05:18:56;;;;;;;17.25;5.28;;;;;;;9.01;46.67;97289.91;4999592;28;20046;-62
2021/04/24 05:21:21;;;;;;;13.77;5.45;;;;;;;8.71;47.98;97293.63;4993504;28;20861;-62
2021/04/24 05:23:47;;;;;;;13.15;5.68;;;;;;;8.70;48.52;97296.72;5001150;28;20049;-62
2021/04/24 05:26:12;;;;;;;10.82;5.03;;;;;;;9.21;47.52;97293.66;4991011;28;20041;-63
2021/04/24 05:28:37;;;;;;;14.23;5.28;;;;;;;11.57;42.02;97293.66;4993932;28;20054;-61
2021/04/24 05:31:03;;;;;;;9.25;4.22;;;;;;;13.62;37.41;97288.31;5000535;28;20049;-63
2021/04/24 05:33:28;;;;;;;9.55;4.88;;;;;;;14.65;33.72;97288.75;4998974;28;20069;-63
2021/04/24 05:35:54;;;;;;;10.93;3.75;;;;;;;16.35;32.13;97282.34;5003779;28;20046;-63
2021/04/24 05:38:19;;;;;;;12.43;5.43;;;;;;;14.61;34.64;97290.69;4998416;28;20088;-62
2021/04/24 05:40:45;;;;;;;10.10;5.28;;;;;;;15.23;32.70;97289.22;5005964;28;20153;-61
2021/04/24 05:43:10;;;;;;;10.30;4.68;;;;;;;15.64;32.95;97284.38;4999185;28;20034;-63
2021/04/24 05:45:36;;;;;;;13.30;5.50;;;;;;;15.14;33.60;97284.03;5003424;28;20107;-62
2021/04/24 05:48:01;;;;;;;15.02;5.45;;;;;;;17.41;29.60;97290.38;5003291;28;20042;-63
2021/04/24 05:50:26;;;;;;;14.07;5.25;;;;;;;17.34;28.31;97288.38;4990215;28;20635;-61
2021/04/24 05:52:52;;;;;;;10.15;5.18;;;;;;;16.16;30.15;97289.78;5002457;28;20041;-62
2021/04/24 05:55:18;;;;;;;16.65;8.38;;;;;;;15.75;31.37;97292.75;4998321;28;20038;-63
2021/04/24 05:57:44;;;;;;;13.23;5.10;;;;;;;16.23;31.21;97291.78;5006890;28;20045;-64
2021/04/24 06:00:13;;;;;;;10.85;5.65;;;;;;;15.52;31.92;97293.00;5010431;28;20485;-64
2021/04/24 06:02:38;;;;;;;12.10;5.40;;;;;;;15.17;32.35;97294.31;5015276;28;20108;-65
2021/04/24 06:05:05;;;;;;;13.95;4.95;;;;;;;16.15;31.09;97290.16;4996461;28;20046;-66
2021/04/24 06:07:30;;;;;;;8.93;4.82;;;;;;;17.92;28.27;97289.09;4999975;28;20049;-65
2021/04/24 06:09:56;;;;;;;14.90;5.72;;;;;;;19.19;25.89;97287.97;5003685;28;20042;-64
2021/04/24 06:12:21;;;;;;;11.88;5.95;;;;;;;21.13;23.10;97291.25;4999428;28;20091;-63
2021/04/24 06:14:46;;;;;;;15.40;5.78;;;;;;;21.92;22.72;97295.47;5003210;28;20400;-63
2021/04/24 06:17:12;;;;;;;12.00;5.47;;;;;;;23.25;20.45;97295.41;4990673;28;20042;-63
2021/04/24 06:19:37;;;;;;;14.25;6.68;;;;;;;24.01;20.03;97288.66;4991664;28;20042;-64
2021/04/24 06:22:03;;;;;;;13.63;5.47;;;;;;;22.79;21.04;97294.47;5000851;28;20045;-66
2021/04/24 06:24:28;;;;;;;10.18;5.28;;;;;;;20.63;23.64;97294.78;5000535;28;20042;-65
2021/04/24 06:26:54;;;;;;;9.07;5.00;;;;;;;21.35;21.86;97291.66;4997991;28;20437;-64
2021/04/24 06:29:19;;;;;;;12.23;4.47;;;;;;;20.67;23.07;97289.16;5003714;28;20045;-63
2021/04/24 06:31:44;;;;;;;10.32;4.80;;;;;;;22.18;21.51;97289.38;5000145;28;20560;-65
2021/04/24 06:34:10;;;;;;;13.90;5.38;;;;;;;18.47;25.33;97295.97;4993978;28;20501;-66
2021/04/24 06:36:35;;;;;;;10.70;5.55;;;;;;;18.01;26.38;97300.56;5000656;28;20084;-62
2021/04/24 06:39:05;;;;;;;16.08;6.20;;;;;;;17.14;27.73;97299.06;5001976;28;20076;-63
2021/04/24 06:41:30;;;;;;;;;;;;;;;17.48;27.49;97293.91;5003521;28;20038;-64
2021/04/24 06:43:56;;;;;;;9.77;4.80;;;;;;;18.96;26.86;97294.13;5000124;28;19925;-62
2021/04/24 06:46:21;;;;;;;10.73;5.50;;;;;;;19.64;25.54;97284.41;4989959;28;20633;-62
2021/04/24 06:48:47;;;;;;;11.30;5.70;;;;;;;19.04;26.19;97292.09;5005899;28;20046;-61
2021/04/24 06:51:12;;;;;;;11.07;5.10;;;;;;;17.65;27.34;97288.75;4995829;28;20070;-64
2021/04/24 06:53:37;;;;;;;15.45;5.55;;;;;;;17.12;29.64;97284.84;4999430;28;20045;-61
2021/04/24 06:56:03;;;;;;;10.70;4.90;;;;;;;16.33;30.17;97293.00;4992462;28;20049;-64
2021/04/24 06:58:28;;;;;;;9.93;5.50;;;;;;;18.67;27.42;97285.16;5016705;28;20038;-63
2021/04/24 07:00:55;;;;;;;12.23;5.40;;;;;;;18.73;27.54;97286.31;4998986;28;20043;-63
2021/04/24 07:03:22;;;;;;;11.20;6.10;;;;;;;19.28;26.95;97277.22;4991914;28;20164;-63
2021/04/24 07:05:48;;;;;;;11.30;5.53;;;;;;;18.28;27.18;97284.19;5000488;28;20136;-62
2021/04/24 07:08:13;;;;;;;10.23;5.18;;;;;;;20.19;24.94;97274.28;4994878;28;20192;-61
2021/04/24 07:10:38;;;;;;;13.02;4.95;;;;;;;21.35;23.22;97283.31;5001626;28;20037;-61
2021/04/24 07:13:04;;;;;;;15.27;5.68;;;;;;;22.77;20.68;97279.38;4992894;28;20129;-61
2021/04/24 07:15:29;;;;;;;7.90;4.60;;;;;;;20.42;23.45;97288.28;4997144;28;20069;-63
2021/04/24 07:17:55;;;;;;;13.57;6.03;;;;;;;15.87;30.38;97288.88;4996486;28;20038;-63
2021/04/24 07:20:20;;;;;;;12.40;5.85;;;;;;;14.05;34.15;97299.88;4989255;28;20456;-62
2021/04/24 07:22:46;;;;;;;15.32;4.78;;;;;;;15.23;31.65;97287.28;5001664;28;20476;-61
2021/04/24 07:25:12;;;;;;;11.25;5.35;;;;;;;14.82;33.65;97281.81;4997527;28;20103;-61
2021/04/24 07:27:37;;;;;;;13.20;5.55;;;;;;;17.72;28.17;97285.97;5001366;28;20034;-61
2021/04/24 07:30:05;;;;;;;14.43;5.45;;;;;;;18.17;27.17;97285.44;4999151;28;20042;-61
2021/04/24 07:32:30;;;;;;;11.40;5.25;;;;;;;18.76;27.63;97284.72;4991550;28;20050;-62
2021/04/24 07:34:56;;;;;;;10.65;4.88;;;;;;;19.33;27.19;97280.75;5000407;28;20046;-65
2021/04/24 07:37:22;;;;;;;9.80;5.53;;;;;;;20.43;25.82;97281.50;4993199;28;20446;-63
2021/04/24 07:39:47;;;;;;;8.32;5.10;;;;;;;20.96;24.04;97278.41;4996926;28;20057;-63
2021/04/24 07:42:13;;;;;;;14.93;5.32;;;;;;;20.76;24.55;97283.84;4987414;28;20060;-62
2021/04/24 07:44:39;;;;;;;13.10;5.90;;;;;;;21.88;23.39;97275.22;5000020;28;20042;-62
2021/04/24 07:47:08;;;;;;;11.50;6.43;;;;;;;20.03;25.16;97280.44;4987438;28;20128;-63
2021/04/24 07:49:33;;;;;;;10.38;5.60;;;;;;;21.29;24.62;97279.44;4999066;28;20038;-64
2021/04/24 07:52:02;;;;;;;12.38;5.43;;;;;;;16.04;30.77;97281.84;4988806;28;20054;-63
2021/04/24 07:54:27;;;;;;;12.65;5.65;;;;;;;17.19;30.54;97274.56;4996651;28;20054;-63
2021/04/24 07:56:53;;;;;;;12.15;6.18;;;;;;;15.67;33.16;97275.31;5001952;28;20060;-61
2021/04/24 07:59:18;;;;;;;11.30;5.72;;;;;;;19.35;27.42;97272.78;4996132;28;20046;-62
2021/04/24 08:01:43;;;;;;;13.35;5.55;;;;;;;16.66;32.08;97269.00;4989947;28;20050;-61
2021/04/24 08:04:09;;;;;;;11.77;5.30;;;;;;;19.38;28.27;97274.75;4994663;28;20536;-64
2021/04/24 08:06:35;;;;;;;14.05;5.50;;;;;;;20.48;26.08;97271.13;5000148;28;20399;-63
2021/04/24 08:09:02;;;;;;;13.52;5.95;;;;;;;20.27;26.26;97272.19;5000304;28;20048;-64
2021/04/24 08:11:28;;;;;;;17.00;5.90;;;;;;;16.80;31.19;97278.09;4996083;28;20050;-63
2021/04/24 08:13:53;;;;;;;11.15;5.90;;;;;;;17.65;30.68;97275.69;5014696;28;20061;-63
2021/04/24 08:16:18;;;;;;;12.98;5.28;;;;;;;20.33;26.99;97268.53;4984943;28;20034;-63
2021/04/24 08:18:44;;;;;;;11.68;5.30;;;;;;;20.95;25.67;97269.25;4999344;28;20042;-62
2021/04/24 08:21:09;;;;;;;11.00;5.65;;;;;;;22.49;23.57;97271.22;4987823;28;20033;-63
2021/04/24 08:23:35;;;;;;;12.05;5.70;;;;;;;20.55;25.19;97269.03;4996572;28;20129;-62
2021/04/24 08:26:00;;;;;;;16.17;5.75;;;;;;;21.64;24.24;97265.31;4991201;28;20038;-63
2021/04/24 08:28:26;;;;;;;13.20;6.00;;;;;;;19.92;28.23;97271.44;4997431;28;20050;-63
2021/04/24 08:30:51;;;;;;;9.13;5.40;;;;;;;20.84;27.14;97277.00;5000972;28;20141;-63
2021/04/24 08:33:16;;;;;;;10.85;5.45;;;;;;;20.85;27.21;97280.53;5005096;28;20069;-62
2021/04/24 08:35:43;;;;;;;9.82;4.97;;;;;;;20.56;28.16;97269.81;5008681;28;20517;-62
2021/04/24 08:38:08;;;;;;;9.25;4.82;;;;;;;20.56;28.01;97267.03;5001930;28;20048;-61
2021/04/24 08:40:34;;;;;;;11.18;5.65;;;;;;;20.59;27.61;97260.63;5000611;28;20050;-61
2021/04/24 08:43:01;;;;;;;12.07;6.35;;;;;;;20.19;29.04;97258.38;4999098;28;20056;-62
2021/04/24 08:45:28;;;;;;;12.55;5.43;;;;;;;20.77;28.32;97254.81;4993316;28;20046;-62
2021/04/24 08:47:53;;;;;;;10.40;5.47;;;;;;;20.86;28.49;97259.88;5002250;28;20088;-63
2021/04/24 08:50:27;;;;;;;10.60;5.45;;;;;;;20.57;28.50;97254.69;4999296;28;20065;-64
2021/04/24 08:52:53;;;;;;;11.63;5.55;;;;;;;20.99;27.47;97255.28;4994067;28;20042;-63
2021/04/24 08:55:22;;;;;;;12.18;5.55;;;;;;;20.59;28.81;97249.50;4999747;28;20132;-64
2021/04/24 08:57:48;;;;;;;10.80;5.17;;;;;;;20.09;29.05;97250.94;4995003;28;20073;-63
2021/04/24 09:00:16;;;;;;;11.15;5.40;;;;;;;19.65;30.24;97258.19;4995649;28;20066;-63
2021/04/24 09:02:43;;;;;;;12.27;5.90;;;;;;;19.54;30.70;97251.97;5000924;28;20726;-61
2021/04/24 09:05:10;;;;;;;14.77;5.78;;;;;;;20.11;28.88;97251.31;4997725;28;20046;-61
2021/04/24 09:07:36;;;;;;;11.57;5.57;;;;;;;19.12;30.93;97254.72;5001656;28;20053;-63
2021/04/24 09:10:03;;;;;;;10.18;5.65;;;;;;;19.42;30.26;97253.28;4990762;28;20035;-61
2021/04/24 09:12:36;;;;;;;22.38;8.57;;;;;;;19.34;30.59;97247.00;4986336;28;20396;-61
2021/04/24 09:15:22;;;;;;;14.35;6.25;;;;;;;19.85;30.13;97244.50;5002663;28;20404;-60
2021/04/24 09:17:54;;;;;;;17.77;6.18;;;;;;;20.36;29.04;97233.53;5015770;28;20132;-62
2021/04/24 09:20:21;;;;;;;12.60;6.03;;;;;;;20.81;27.86;97234.09;5017855;28;20083;-61
2021/04/24 09:22:58;;;;;;;12.90;5.57;;;;;;;20.36;28.62;97231.53;5014207;28;20065;-63
2021/04/24 09:25:42;;;;;;;13.13;6.15;;;;;;;18.98;31.04;97230.66;5019998;28;20213;-62
2021/04/24 09:28:10;;;;;;;14.43;5.93;;;;;;;19.96;30.03;97220.13;5011835;28;20048;-63
2021/04/24 09:30:38;;;;;;;14.13;6.00;;;;;;;20.30;28.60;97219.28;5004823;28;20038;-62
2021/04/24 09:33:12;;;;;;;17.52;7.47;;;;;;;20.03;29.17;97224.81;4999479;28;20042;-63
2021/04/24 09:35:48;;;;;;;14.32;5.72;;;;;;;20.03;29.04;97225.59;5018201;28;20100;-63
2021/04/24 09:38:28;;;;;;;10.43;5.63;;;;;;;19.93;29.56;97222.97;5004698;28;20068;-62
2021/04/24 09:41:02;;;;;;;12.20;6.20;;;;;;;19.00;30.68;97219.16;5015250;28;20091;-61
2021/04/24 09:43:28;;;;;;;18.00;7.50;;;;;;;18.11;32.26;97224.88;5013815;28;20041;-63
2021/04/24 09:45:53;;;;;;;14.52;6.97;;;;;;;18.96;31.27;97212.81;5012042;28;20040;-62
2021/04/24 09:48:21;;;;;;;15.85;6.43;;;;;;;18.79;31.04;97215.31;5017269;28;20162;-62
2021/04/24 09:50:47;;;;;;;14.88;7.43;;;;;;;17.82;32.39;97221.41;5019451;28;20103;-62
2021/04/24 09:53:24;;;;;;;12.90;6.47;;;;;;;19.04;31.58;97214.34;5017025;28;20049;-62
2021/04/24 09:55:51;;;;;;;11.27;5.88;;;;;;;19.23;30.94;97208.22;5021543;28;20041;-62
2021/04/24 09:58:29;;;;;;;12.30;6.22;;;;;;;18.87;31.31;97199.41;5011425;28;20077;-63
2021/04/24 10:01:25;;;;;;;18.10;7.25;;;;;;;19.43;30.25;97213.19;5013601;28;20514;-62
2021/04/24 10:03:52;;;;;;;14.52;7.22;;;;;;;19.24;30.82;97201.47;4994767;28;20050;-62
2021/04/24 10:06:30;;;;;;;13.18;6.28;;;;;;;18.43;32.48;97200.94;4996896;28;20571;-64
2021/04/24 10:09:15;;;;;;;10.95;5.45;;;;;;;19.37;30.60;97198.16;4989543;28;20073;-63
2021/04/24 10:11:42;;;;;;;15.30;6.72;;;;;;;19.70;29.97;97193.84;5001458;28;20038;-63
2021/04/24 10:14:08;;;;;;;11.63;6.53;;;;;;;19.32;30.56;97191.09;5011393;28;20038;-63
2021/04/24 10:16:43;;;;;;;18.80;6.97;;;;;;;20.26;29.42;97185.19;5002588;28;20046;-62
2021/04/24 10:19:13;;;;;;;16.40;7.00;;;;;;;20.00;29.17;97183.94;4997422;28;20045;-63
2021/04/24 10:21:41;;;;;;;19.02;6.50;;;;;;;19.90;29.19;97182.91;5003486;28;20070;-62
2021/04/24 10:24:08;;;;;;;12.57;6.50;;;;;;;19.94;29.94;97182.84;4990990;28;20038;-63
2021/04/24 10:26:35;;;;;;;14.75;7.45;;;;;;;20.19;28.98;97183.28;4999612;28;20128;-61
2021/04/24 10:29:01;;;;;;;13.85;7.20;;;;;;;20.41;28.67;97178.19;4996956;28;20045;-63
2021/04/24 10:31:30;;;;;;;24.10;6.97;;;;;;;20.76;27.85;97170.53;4993902;28;20049;-63
2021/04/24 10:33:59;;;;;;;14.52;7.90;;;;;;;20.79;27.29;97178.03;5000640;28;20048;-62
2021/04/24 10:36:25;;;;;;;14.73;6.93;;;;;;;20.99;27.13;97171.72;4989069;28;20046;-62
2021/04/24 10:38:51;;;;;;;16.55;6.95;;;;;;;21.50;26.09;97164.06;5002506;28;20064;-62
2021/04/24 10:41:27;;;;;;;14.20;6.35;;;;;;;20.73;26.73;97159.47;4997586;28;20116;-64
2021/04/24 10:44:18;;;;;;;11.65;6.07;;;;;;;19.44;27.98;97161.97;4997503;28;20038;-65
2021/04/24 10:46:49;;;;;;;13.45;6.40;;;;;;;20.59;25.92;97157.66;4997884;28;20042;-63
2021/04/24 10:49:29;;;;;;;15.68;6.97;;;;;;;19.44;28.05;97161.97;4998133;28;20042;-64
2021/04/24 10:52:12;;;;;;;;;;;;;;;20.08;27.38;97145.69;5004220;28;20042;-63
2021/04/24 10:54:39;;;;;;;12.48;6.38;;;;;;;19.60;29.09;97144.72;5001806;28;19913;-64
2021/04/24 10:57:43;;;;;;;16.75;7.50;;;;;;;19.89;28.25;97153.50;4996894;28;20107;-64
2021/04/24 11:00:13;;;;;;;22.15;6.82;;;;;;;19.75;28.83;97145.38;5002331;28;20052;-61
2021/04/24 11:02:44;;;;;;;14.80;7.07;;;;;;;19.63;28.88;97143.91;5006426;28;20045;-63
2021/04/24 11:05:22;;;;;;;12.25;7.10;;;;;;;19.46;29.14;97142.91;4996503;28;20042;-63
2021/04/24 11:07:48;;;;;;;14.65;7.25;;;;;;;19.71;28.77;97125.94;5005703;28;20105;-64
2021/04/24 11:10:14;;;;;;;15.13;7.35;;;;;;;18.79;32.00;97126.53;5010910;28;20050;-64
2021/04/24 11:12:47;;;;;;;14.00;7.03;;;;;;;19.22;30.20;97128.13;5016653;28;20114;-63
2021/04/24 11:15:18;;;;;;;17.05;7.95;;;;;;;19.18;31.05;97119.81;4997061;28;20042;-62
2021/04/24 11:17:45;;;;;;;13.18;6.68;;;;;;;19.44;30.17;97120.31;4999064;28;20099;-62
2021/04/24 11:20:11;;;;;;;11.63;6.32;;;;;;;19.49;30.70;97115.09;4990142;28;20043;-62
2021/04/24 11:22:41;;;;;;;16.60;7.43;;;;;;;19.42;30.99;97117.16;4998012;28;20091;-61
2021/04/24 11:25:20;;;;;;;15.90;7.05;;;;;;;19.32;31.14;97105.00;4990962;28;20493;-62
2021/04/24 11:28:03;;;;;;;17.50;6.43;;;;;;;19.11;31.03;97106.00;4991779;28;20054;-59
2021/04/24 11:31:06;;;;;;;16.65;7.63;;;;;;;19.09;32.12;97102.88;4990042;28;20053;-59
2021/04/24 11:33:44;;;;;;;15.52;7.65;;;;;;;18.87;32.19;97100.31;4998613;28;20069;-60